Terminal Aerodrome Forecast
Issued by NWS Billings, MT

Home | Current Version | Previous Version | Text Only | Print | Product List | Glossary On
Versions: 1 2 3 4 5 6 7 8 9 10 11 12 13 14 15 16 17 18 19 20 21 22 23 24 25 26 27 28 29 30 31 32 33 34 35 36
997
FTUS45 KBYZ 141137
TAFBIL
TAF
KBIL 141137Z 1412/1512 21010KT 6SM -SN OVC040
     FM141230 24011KT P6SM OVC050
     FM141600 28020G40KT P6SM SCT040 BKN070
     FM150300 29020KT P6SM SCT150
     FM150600 25013KT P6SM VCSH BKN100=

USA.gov is the U.S. government's official web portal to all federal, state and local government web resources and services.